Etusivu
METAR-TAF:

METAR-TAF

Lentoasemat :

Ivalo, Suomi

Ivalon lentoasema

Leveyspiiri: 68-37N, Pituuspiiri: 027-25E, korkeus merenpinnasta: 147 m

Tämänhetkinen sää

Tämä raportti tehtiin 21 minuuttia sitten, kello 23.50 UTC
Tuuli 4 kn idästä/koillisesta, vaihdellen pohjoisen/koillisen ja idän välillä
Lämpötila 10°C
Kosteus 71%
Ilmanpaine 995 hPa
Näkyvyys 10 km tai enemmän
Pilvistä 4400 ft:n korkeudessa
heikkoa sadetta

METAR: EFIV 252350Z AUTO 06004KT 020V100 9999 -RA OVC044 10/05 Q0995

Aika: 03:11 (00:11 UTC)

Sääennuste

Tämä raportti tehtiin 21 tuntia ja 45 minuuttia sitten, kello 02.26 UTC
Ennuste voimassa 25. päivästä klo 03 UTC - 25. päivään klo 06 UTC
Tuuli 3 kn idästä
Näkyvyys 10 km tai enemmän
Muutamia pilviä 4500 ft:n korkeudessa
Hajonneita pilviä 8000 ft:n korkeudessa

TAF: EFIV 250226Z 2503/2506 10003KT 9999 FEW045 BKN080

Säähavainnot ja -ennusteet yli 4000 lentoasemalta (METAR- ja TAF-raportit).

Käytössä olevat sääasemat on merkitty karttaan keltaisilla ja punaisilla pisteillä.

Aseta hiiri pisteen päälle nähdäksesi sääaseman nimen.

Klikkaa sitten nähdäksesi säähavainnot ja -ennusteet.

Kartan vaihtaminen: klikkaa mustalla rastilla varustettuja vihreitä pisteitä, niin voit zoomata sisään; viivalla varustettua vihreää pistettä, niin voit zoomata ulos tai vihreitä nuolia, niin pääset viereisille kartoille.


METAR-TAF: